Warrenton, NC

5:21 PM EDT on May 22, 2015 (GMT -0400)
HEMC - Macon | | Change Station
CLOSE
Current Station
Personal Weather Station
Location: Macon, NC
Elevation: 384 ft
Nearby Weather Stations

Elev 384 ft 36.44 °N, 78.07 °W | Updated 6 minutes ago

Clear
Clear
72.7 °F
Feels Like 77 °F
N
2.0
Wind Variable Wind from NNW
Gusts 7.0 mph

Today
High -- | Low -- °F
--% Chance of Precip.
Yesterday
High -- | Low -- °F
Precip. -- in
6:01 AM 8:17 PM
Waxing Crescent, 24% visible
Pressure 30.22 in
Visibility 10.0 miles
Clouds Clear
Heat Index 77 °F
Dew Point 46 °F
Humidity 39%
Rainfall -999.00 in
Snow Depth Not available.
UV 2.8 out of 12
Pollen 7.30 out of 12
Air Quality Not available.
Flu Activity No Activity
METAR KAVC 222116Z AUTO 00000KT 10SM CLR 23/06 A3022 RMK AO2 T02260064

More Conditions Fewer Conditions

Pressure 30.22 in
Visibility 10.0 miles
Clouds Clear
Heat Index 77 °F
Dew Point 46 °F
Humidity 39%
Rainfall -999.00 in
Snow Depth Not available.
UV 2.8 out of 12
Pollen 7.30 out of 12
Air Quality Not available.
Flu Activity No Activity
METAR KAVC 222116Z AUTO 00000KT 10SM CLR 23/06 A3022 RMK AO2 T02260064

More Conditions Fewer Conditions

10-Day Weather Forecast

Almanac

Astronomy

May. 22, 2015 Rise Set
Actual Time
Civil Twilight
Nautical Twilight
Astronomical Twilight
Moon
Length of Visible Light
Length of Day
Tomorrow will be .
, % of the Moon is Illuminated

Today's Extremes

State Highs State Lows

Community

WunderPhotos

Upload Photos

1,823,306 photos uploaded!

WunderBlogs® & News

Nearby

Air Quality

  Air Quality AQ Index Pollutant
Not available.

Snow Depth

Station Depth Elevation

Earthquake Activity

City Distance Mag. Time & Date
Minimum magnitude displayed is 2.5.

Coastal Water Temperatures

Place Temperature

Stations

Nearby Weather Stations

Station Location Temp. Windchill Dew Point Humidity Wind Precip. Elev Updated Type